![]() |
EMODnet Physics ERDDAP
Easier access to scientific data |
log in|
Brought to you by EMODnet Physics |
| Dataset Title: | NDBC - Collection of dew point temperature (DEWT) TimeSeries - IN SITU MultiPointTimeSeriesObservation
|
| Institution: | NDBC (Dataset ID: TS_DEWT_NDBC) |
| Information: | Summary
| License
| FGDC
| ISO 19115
| Metadata
| Background
| Subset
| Data Access Form
| Make a graph
|
| Name | Last modified | Size | Description | |
|---|---|---|---|---|
| Parent Directory | - | - | ||
| 44014_TS_DEWT_012001.nc | 24-Dec-2024 06:14 | 1669341 | ||
| 44014_TS_DEWT_012002.nc | 24-Dec-2024 06:16 | 1650526 | ||
| 44014_TS_DEWT_012003.nc | 24-Dec-2024 06:18 | 1527614 | ||
| 44014_TS_DEWT_012004.nc | 24-Dec-2024 06:20 | 1573993 | ||
| 44014_TS_DEWT_012005.nc | 24-Dec-2024 06:22 | 1662439 | ||
| 44014_TS_DEWT_012007.nc | 17-Jan-2026 02:22 | 1837916 | ||
| 44014_TS_DEWT_012014.nc | 17-Jan-2026 02:51 | 1828776 | ||
| 44014_TS_DEWT_012015.nc | 17-Jan-2026 02:55 | 1618721 | ||
| 44014_TS_DEWT_012018.nc | 17-Jan-2026 03:04 | 1825854 | ||
| 44014_TS_DEWT_012019.nc | 17-Jan-2026 03:07 | 1824628 | ||
| 44014_TS_DEWT_012020.nc | 17-Jan-2026 03:10 | 1633374 | ||
| 44014_TS_DEWT_012021.nc | 17-Jan-2026 03:14 | 1529879 | ||
| 44014_TS_DEWT_012022.nc | 17-Jan-2026 03:21 | 1729392 | ||
| 44014_TS_DEWT_012024.nc | 17-Jan-2026 03:33 | 1496188 | ||
| 44014_TS_DEWT_012025.nc | 17-Jan-2026 03:43 | 1007978 | ||
| 44014_TS_DEWT_012026.nc | 02-Feb-2026 16:50 | 1828631 | ||
| 44014_TS_DEWT_022001.nc | 24-Dec-2024 06:14 | 1827669 | ||
| 44014_TS_DEWT_022002.nc | 24-Dec-2024 06:16 | 1831431 | ||
| 44014_TS_DEWT_022003.nc | 24-Dec-2024 06:18 | 1828014 | ||
| 44014_TS_DEWT_022004.nc | 24-Dec-2024 06:20 | 1829147 | ||
| 44014_TS_DEWT_022005.nc | 24-Dec-2024 06:22 | 1824342 | ||
| 44014_TS_DEWT_022007.nc | 17-Jan-2026 02:22 | 1825965 | ||
| 44014_TS_DEWT_022014.nc | 17-Jan-2026 02:51 | 1828403 | ||
| 44014_TS_DEWT_022015.nc | 17-Jan-2026 02:55 | 1487767 | ||
| 44014_TS_DEWT_022018.nc | 17-Jan-2026 03:04 | 1487193 | ||
| 44014_TS_DEWT_022019.nc | 17-Jan-2026 03:07 | 1663279 | ||
| 44014_TS_DEWT_022020.nc | 17-Jan-2026 03:10 | 1649383 | ||
| 44014_TS_DEWT_022021.nc | 17-Jan-2026 03:15 | 1650889 | ||
| 44014_TS_DEWT_022024.nc | 17-Jan-2026 03:34 | 1652473 | ||
| 44014_TS_DEWT_022025.nc | 17-Jan-2026 03:43 | 1662206 | ||
| 44014_TS_DEWT_022026.nc | 01-Mar-2026 05:24 | 1650239 | ||
| 44014_TS_DEWT_032001.nc | 24-Dec-2024 06:14 | 1647993 | ||
| 44014_TS_DEWT_032002.nc | 24-Dec-2024 06:16 | 1650039 | ||
| 44014_TS_DEWT_032003.nc | 24-Dec-2024 06:18 | 1645694 | ||
| 44014_TS_DEWT_032004.nc | 24-Dec-2024 06:20 | 1647268 | ||
| 44014_TS_DEWT_032005.nc | 24-Dec-2024 06:22 | 1829020 | ||
| 44014_TS_DEWT_032007.nc | 17-Jan-2026 02:23 | 1826914 | ||
| 44014_TS_DEWT_032014.nc | 17-Jan-2026 02:52 | 1822930 | ||
| 44014_TS_DEWT_032015.nc | 17-Jan-2026 02:55 | 1826160 | ||
| 44014_TS_DEWT_032018.nc | 17-Jan-2026 03:04 | 1828498 | ||
| 44014_TS_DEWT_032019.nc | 17-Jan-2026 03:07 | 1827905 | ||
| 44014_TS_DEWT_032021.nc | 17-Jan-2026 03:15 | 1582183 | ||
| 44014_TS_DEWT_032024.nc | 17-Jan-2026 03:34 | 1828618 | ||
| 44014_TS_DEWT_032025.nc | 17-Jan-2026 03:44 | 1495060 | ||
| 44014_TS_DEWT_032026.nc | 25-Mar-2026 06:01 | 1496307 | ||
| 44014_TS_DEWT_042001.nc | 24-Dec-2024 06:15 | 1672264 | ||
| 44014_TS_DEWT_042002.nc | 24-Dec-2024 06:17 | 1671709 | ||
| 44014_TS_DEWT_042003.nc | 24-Dec-2024 06:19 | 1660995 | ||
| 44014_TS_DEWT_042004.nc | 24-Dec-2024 06:20 | 1633351 | ||
| 44014_TS_DEWT_042005.nc | 24-Dec-2024 06:22 | 1673725 | ||
| 44014_TS_DEWT_042007.nc | 17-Jan-2026 02:23 | 1671719 | ||
| 44014_TS_DEWT_042011.nc | 17-Jan-2026 02:42 | 1668626 | ||
| 44014_TS_DEWT_042014.nc | 17-Jan-2026 02:52 | 1670904 | ||
| 44014_TS_DEWT_042017.nc | 17-Jan-2026 03:01 | 1491625 | ||
| 44014_TS_DEWT_042018.nc | 17-Jan-2026 03:04 | 1646308 | ||
| 44014_TS_DEWT_042019.nc | 17-Jan-2026 03:07 | 1824402 | ||
| 44014_TS_DEWT_042024.nc | 17-Jan-2026 03:35 | 1826527 | ||
| 44014_TS_DEWT_042025.nc | 17-Jan-2026 03:45 | 1828060 | ||
| 44014_TS_DEWT_052001.nc | 24-Dec-2024 06:15 | 1828917 | ||
| 44014_TS_DEWT_052002.nc | 24-Dec-2024 06:17 | 1829179 | ||
| 44014_TS_DEWT_052003.nc | 24-Dec-2024 06:19 | 1825927 | ||
| 44014_TS_DEWT_052004.nc | 24-Dec-2024 06:20 | 1827620 | ||
| 44014_TS_DEWT_052005.nc | 24-Dec-2024 06:22 | 1826747 | ||
| 44014_TS_DEWT_052011.nc | 17-Jan-2026 02:42 | 591831 | ||
| 44014_TS_DEWT_052014.nc | 17-Jan-2026 02:52 | 1477670 | ||
| 44014_TS_DEWT_052017.nc | 17-Jan-2026 03:02 | 1495838 | ||
| 44014_TS_DEWT_052018.nc | 17-Jan-2026 03:05 | 1672680 | ||
| 44014_TS_DEWT_052019.nc | 17-Jan-2026 03:08 | 1670317 | ||
| 44014_TS_DEWT_052020.nc | 17-Jan-2026 03:10 | 1669369 | ||
| 44014_TS_DEWT_052024.nc | 17-Jan-2026 03:36 | 1672263 | ||
| 44014_TS_DEWT_052025.nc | 17-Jan-2026 03:46 | 1672227 | ||
| 44014_TS_DEWT_062001.nc | 24-Dec-2024 06:15 | 1670229 | ||
| 44014_TS_DEWT_062002.nc | 24-Dec-2024 06:17 | 1671174 | ||
| 44014_TS_DEWT_062003.nc | 24-Dec-2024 06:19 | 1647015 | ||
| 44014_TS_DEWT_062004.nc | 24-Dec-2024 06:21 | 1164978 | ||
| 44014_TS_DEWT_062005.nc | 24-Dec-2024 06:23 | 1485223 | ||
| 44014_TS_DEWT_062006.nc | 17-Jan-2026 02:18 | 1158582 | ||
| 44014_TS_DEWT_062011.nc | 17-Jan-2026 02:43 | 1647342 | ||
| 44014_TS_DEWT_062014.nc | 17-Jan-2026 02:53 | 1826776 | ||
| 44014_TS_DEWT_062017.nc | 17-Jan-2026 03:02 | 1826883 | ||
| 44014_TS_DEWT_062018.nc | 17-Jan-2026 03:05 | 1825943 | ||
| 44014_TS_DEWT_062019.nc | 17-Jan-2026 03:08 | 1828409 | ||
| 44014_TS_DEWT_062020.nc | 17-Jan-2026 03:11 | 1826871 | ||
| 44014_TS_DEWT_062023.nc | 17-Jan-2026 03:27 | 1824990 | ||
| 44014_TS_DEWT_062024.nc | 17-Jan-2026 03:36 | 1637132 | ||
| 44014_TS_DEWT_062025.nc | 17-Jan-2026 03:46 | 1646781 | ||
| 44014_TS_DEWT_072001.nc | 24-Dec-2024 06:15 | 433107 | ||
| 44014_TS_DEWT_072002.nc | 24-Dec-2024 06:17 | 1174991 | ||
| 44014_TS_DEWT_072003.nc | 24-Dec-2024 06:19 | 1823738 | ||
| 44014_TS_DEWT_072004.nc | 24-Dec-2024 06:21 | 1827113 | ||
| 44014_TS_DEWT_072005.nc | 24-Dec-2024 06:23 | 1825088 | ||
| 44014_TS_DEWT_072006.nc | 17-Jan-2026 02:19 | 1829550 | ||
| 44014_TS_DEWT_072011.nc | 17-Jan-2026 02:43 | 1827065 | ||
| 44014_TS_DEWT_072014.nc | 17-Jan-2026 02:53 | 1827276 | ||
| 44014_TS_DEWT_072017.nc | 17-Jan-2026 03:02 | 1645141 | ||
| 44014_TS_DEWT_072018.nc | 17-Jan-2026 03:05 | 1826288 | ||
| 44014_TS_DEWT_072019.nc | 17-Jan-2026 03:08 | 1495810 | ||
| 44014_TS_DEWT_072020.nc | 17-Jan-2026 03:11 | 1162770 | ||
| 44014_TS_DEWT_072021.nc | 17-Jan-2026 03:18 | 1495039 | ||
| 44014_TS_DEWT_072023.nc | 17-Jan-2026 03:28 | 1671416 | ||
| 44014_TS_DEWT_072024.nc | 17-Jan-2026 03:37 | 1671150 | ||
| 44014_TS_DEWT_072025.nc | 17-Jan-2026 03:47 | 1670242 | ||
| 44014_TS_DEWT_082001.nc | 24-Dec-2024 06:15 | 1668481 | ||
| 44014_TS_DEWT_082002.nc | 24-Dec-2024 06:17 | 1670607 | ||
| 44014_TS_DEWT_082003.nc | 24-Dec-2024 06:19 | 1653396 | ||
| 44014_TS_DEWT_082004.nc | 24-Dec-2024 06:21 | 1652392 | ||
| 44014_TS_DEWT_082005.nc | 24-Dec-2024 06:23 | 1297358 | ||
| 44014_TS_DEWT_082006.nc | 17-Jan-2026 02:19 | 1645956 | ||
| 44014_TS_DEWT_082011.nc | 17-Jan-2026 02:44 | 1496795 | ||
| 44014_TS_DEWT_082014.nc | 17-Jan-2026 02:53 | 1713461 | ||
| 44014_TS_DEWT_082017.nc | 17-Jan-2026 03:02 | 1828322 | ||
| 44014_TS_DEWT_082018.nc | 17-Jan-2026 03:05 | 1828704 | ||
| 44014_TS_DEWT_082019.nc | 17-Jan-2026 03:08 | 1831140 | ||
| 44014_TS_DEWT_082020.nc | 17-Jan-2026 03:12 | 1826479 | ||
| 44014_TS_DEWT_082021.nc | 17-Jan-2026 03:18 | 1827543 | ||
| 44014_TS_DEWT_082023.nc | 17-Jan-2026 03:29 | 1826643 | ||
| 44014_TS_DEWT_082024.nc | 17-Jan-2026 03:38 | 1827463 | ||
| 44014_TS_DEWT_082025.nc | 17-Jan-2026 03:48 | 438933 | ||
| 44014_TS_DEWT_092001.nc | 24-Dec-2024 06:15 | 612237 | ||
| 44014_TS_DEWT_092002.nc | 24-Dec-2024 06:17 | 1496196 | ||
| 44014_TS_DEWT_092003.nc | 24-Dec-2024 06:19 | 1670327 | ||
| 44014_TS_DEWT_092004.nc | 24-Dec-2024 06:21 | 1670623 | ||
| 44014_TS_DEWT_092005.nc | 24-Dec-2024 06:23 | 1670431 | ||
| 44014_TS_DEWT_092006.nc | 17-Jan-2026 02:20 | 1674412 | ||
| 44014_TS_DEWT_092014.nc | 17-Jan-2026 02:53 | 1670018 | ||
| 44014_TS_DEWT_092017.nc | 17-Jan-2026 03:03 | 1665638 | ||
| 44014_TS_DEWT_092018.nc | 17-Jan-2026 03:06 | 1671322 | ||
| 44014_TS_DEWT_092019.nc | 17-Jan-2026 03:09 | 1669540 | ||
| 44014_TS_DEWT_092020.nc | 17-Jan-2026 03:12 | 1646782 | ||
| 44014_TS_DEWT_092021.nc | 17-Jan-2026 03:19 | 1491947 | ||
| 44014_TS_DEWT_092023.nc | 17-Jan-2026 03:30 | 1827361 | ||
| 44014_TS_DEWT_092024.nc | 17-Jan-2026 03:39 | 1827283 | ||
| 44014_TS_DEWT_092025.nc | 17-Jan-2026 03:49 | 1825146 | ||
| 44014_TS_DEWT_102001.nc | 24-Dec-2024 06:16 | 1826810 | ||
| 44014_TS_DEWT_102002.nc | 24-Dec-2024 06:18 | 1827136 | ||
| 44014_TS_DEWT_102004.nc | 24-Dec-2024 06:21 | 1829043 | ||
| 44014_TS_DEWT_102005.nc | 24-Dec-2024 06:23 | 1829017 | ||
| 44014_TS_DEWT_102006.nc | 17-Jan-2026 02:20 | 1817840 | ||
| 44014_TS_DEWT_102014.nc | 17-Jan-2026 02:54 | 1641750 | ||
| 44014_TS_DEWT_102017.nc | 17-Jan-2026 03:03 | 1673164 | ||
| 44014_TS_DEWT_102018.nc | 17-Jan-2026 03:06 | 1829407 | ||
| 44014_TS_DEWT_102019.nc | 17-Jan-2026 03:09 | 1824133 | ||
| 44014_TS_DEWT_102020.nc | 17-Jan-2026 03:13 | 1666936 | ||
| 44014_TS_DEWT_102021.nc | 17-Jan-2026 03:19 | 1660245 | ||
| 44014_TS_DEWT_102023.nc | 17-Jan-2026 03:30 | 1815466 | ||
| 44014_TS_DEWT_102024.nc | 17-Jan-2026 03:40 | 1826973 | ||
| 44014_TS_DEWT_102025.nc | 17-Jan-2026 03:49 | 3896894 | ||
| 44014_TS_DEWT_112001.nc | 24-Dec-2024 06:16 | 3669816 | ||
| 44014_TS_DEWT_112002.nc | 24-Dec-2024 06:18 | 1299442 | ||
| 44014_TS_DEWT_112003.nc | 24-Dec-2024 06:19 | 1658401 | ||
| 44014_TS_DEWT_112004.nc | 24-Dec-2024 06:21 | 1655376 | ||
| 44014_TS_DEWT_112005.nc | 24-Dec-2024 06:23 | 1655201 | ||
| 44014_TS_DEWT_112006.nc | 17-Jan-2026 02:20 | 1652164 | ||
| 44014_TS_DEWT_112014.nc | 17-Jan-2026 02:54 | 1647268 | ||
| 44014_TS_DEWT_112017.nc | 17-Jan-2026 03:03 | 1648546 | ||
| 44014_TS_DEWT_112018.nc | 17-Jan-2026 03:06 | 1658650 | ||
| 44014_TS_DEWT_112019.nc | 17-Jan-2026 03:09 | 1545504 | ||
| 44014_TS_DEWT_112020.nc | 17-Jan-2026 03:13 | 2417619 | ||
| 44014_TS_DEWT_112021.nc | 17-Jan-2026 03:20 | 4749774 | ||
| 44014_TS_DEWT_112023.nc | 17-Jan-2026 03:31 | 1649126 | ||
| 44014_TS_DEWT_112024.nc | 17-Jan-2026 03:41 | 1665573 | ||
| 44014_TS_DEWT_112025.nc | 17-Jan-2026 03:50 | 1826866 | ||
| 44014_TS_DEWT_122000.nc | 24-Dec-2024 06:14 | 1823021 | ||
| 44014_TS_DEWT_122001.nc | 24-Dec-2024 06:16 | 1832578 | ||
| 44014_TS_DEWT_122002.nc | 24-Dec-2024 06:18 | 1664127 | ||
| 44014_TS_DEWT_122003.nc | 24-Dec-2024 06:20 | 1307460 | ||
| 44014_TS_DEWT_122004.nc | 24-Dec-2024 06:22 | 1826720 | ||
| 44014_TS_DEWT_122005.nc | 24-Dec-2024 06:24 | 1728631 | ||
| 44014_TS_DEWT_122006.nc | 17-Jan-2026 02:21 | 4636174 | ||
| 44014_TS_DEWT_122014.nc | 17-Jan-2026 02:54 | 3975830 | ||
| 44014_TS_DEWT_122017.nc | 17-Jan-2026 03:03 | 431817 | ||
| 44014_TS_DEWT_122018.nc | 17-Jan-2026 03:06 | 1624203 | ||
| 44014_TS_DEWT_122019.nc | 17-Jan-2026 03:10 | 1656576 | ||
| 44014_TS_DEWT_122020.nc | 17-Jan-2026 03:14 | 1677034 | ||
| 44014_TS_DEWT_122021.nc | 17-Jan-2026 03:20 | 1666880 | ||
| 44014_TS_DEWT_122023.nc | 17-Jan-2026 03:32 | 1319013 | ||
| 44014_TS_DEWT_122024.nc | 17-Jan-2026 03:42 | 1673392 | ||
| 44014_TS_DEWT_122025.nc | 17-Jan-2026 03:51 | 1665992 | ||